createdAt,value
2018-03-04T00:00:12.431Z,0.80
2018-03-04T00:02:40.638Z,0.80
2018-03-04T00:05:08.422Z,0.80
2018-03-04T00:07:36.739Z,0.80
2018-03-04T00:10:06.351Z,0.70
2018-03-04T00:12:34.820Z,0.70
2018-03-04T00:15:02.388Z,0.70
2018-03-04T00:17:30.008Z,0.80
2018-03-04T00:19:59.094Z,0.80
2018-03-04T00:22:40.196Z,0.80
2018-03-04T00:25:09.281Z,0.80
2018-03-04T00:27:37.929Z,0.90
2018-03-04T00:30:06.618Z,0.90
2018-03-04T00:32:36.375Z,0.90
2018-03-04T00:35:04.937Z,0.90
2018-03-04T00:37:33.570Z,0.90
2018-03-04T00:40:02.929Z,0.90
2018-03-04T00:42:34.004Z,0.90
2018-03-04T00:45:03.228Z,0.90
2018-03-04T00:47:31.154Z,0.90
2018-03-04T00:50:01.462Z,0.90
2018-03-04T00:52:29.539Z,0.80
2018-03-04T00:54:58.668Z,0.80
2018-03-04T00:57:28.153Z,0.80
2018-03-04T00:59:56.724Z,0.80
2018-03-04T01:02:26.315Z,0.80
2018-03-04T01:04:55.710Z,0.80
2018-03-04T01:07:24.143Z,0.80
2018-03-04T01:09:51.814Z,0.80
2018-03-04T01:12:19.392Z,0.80
2018-03-04T01:14:46.975Z,0.80
2018-03-04T01:17:15.755Z,0.80
2018-03-04T01:19:44.753Z,0.90
2018-03-04T01:22:12.343Z,0.80
2018-03-04T01:24:39.908Z,0.90
2018-03-04T01:27:09.462Z,0.90
2018-03-04T01:29:38.825Z,0.90
2018-03-04T01:32:06.412Z,0.90
2018-03-04T01:34:36.527Z,0.90
2018-03-04T01:37:04.145Z,0.80
2018-03-04T01:39:34.006Z,0.80
2018-03-04T01:42:04.523Z,0.80
2018-03-04T01:44:32.665Z,0.80
2018-03-04T01:47:01.300Z,0.80
2018-03-04T01:49:30.214Z,0.90
2018-03-04T01:51:59.429Z,0.90
2018-03-04T01:54:29.263Z,0.90
2018-03-04T01:56:57.637Z,0.90
2018-03-04T01:59:26.172Z,0.90
2018-03-04T02:01:55.253Z,0.90
2018-03-04T02:04:24.087Z,0.90
2018-03-04T02:06:51.664Z,0.90
2018-03-04T02:09:21.576Z,0.90
2018-03-04T02:11:49.191Z,1.00
2018-03-04T02:14:17.627Z,1.00
2018-03-04T02:16:46.729Z,1.00
2018-03-04T02:19:14.322Z,1.00
2018-03-04T02:21:42.825Z,1.00
2018-03-04T02:24:11.718Z,1.00
2018-03-04T02:26:44.925Z,1.00
2018-03-04T02:29:14.323Z,1.00
2018-03-04T02:31:43.423Z,1.00
2018-03-04T02:34:11.913Z,1.00
2018-03-04T02:36:40.002Z,1.00
2018-03-04T02:39:08.702Z,1.00
2018-03-04T02:41:37.308Z,1.00
2018-03-04T02:44:07.028Z,1.00
2018-03-04T02:46:37.222Z,1.00
2018-03-04T02:49:05.460Z,1.00
2018-03-04T02:51:33.796Z,1.00
2018-03-04T02:54:01.840Z,0.90
2018-03-04T02:56:29.789Z,0.90
2018-03-04T02:58:57.558Z,0.90
2018-03-04T03:01:27.733Z,0.90
2018-03-04T03:03:57.458Z,1.00
2018-03-04T03:06:29.803Z,1.00
2018-03-04T03:09:00.189Z,1.00
2018-03-04T03:11:31.320Z,1.00
2018-03-04T03:14:01.515Z,1.00
2018-03-04T03:16:32.023Z,1.10
2018-03-04T03:19:02.231Z,1.10
2018-03-04T03:21:33.351Z,1.10
2018-03-04T03:24:03.170Z,1.10
2018-03-04T03:26:32.408Z,1.10
2018-03-04T03:29:02.439Z,1.10
2018-03-04T03:31:31.703Z,1.10
2018-03-04T03:34:05.880Z,1.10
2018-03-04T03:36:36.266Z,1.20
2018-03-04T03:39:07.201Z,1.20
2018-03-04T03:41:37.709Z,1.10
2018-03-04T03:44:05.544Z,1.10
2018-03-04T03:46:38.066Z,1.10
2018-03-04T03:49:08.275Z,1.00
2018-03-04T03:51:35.963Z,1.00
2018-03-04T03:54:03.912Z,1.00
2018-03-04T03:56:34.278Z,1.00
2018-03-04T03:59:02.651Z,1.00
2018-03-04T04:01:30.523Z,1.00
2018-03-04T04:04:01.298Z,1.00
2018-03-04T04:06:31.539Z,1.00
2018-03-04T04:09:04.781Z,1.00
2018-03-04T04:11:33.973Z,1.00
2018-03-04T04:14:01.555Z,0.90
2018-03-04T04:16:29.146Z,0.90
2018-03-04T04:18:56.720Z,0.90
2018-03-04T04:21:30.121Z,1.00
2018-03-04T04:23:59.397Z,1.00
2018-03-04T04:26:28.448Z,1.00
2018-03-04T04:28:57.304Z,1.00
2018-03-04T04:31:26.718Z,1.00
2018-03-04T04:33:56.073Z,1.00
2018-03-04T04:36:25.197Z,1.00
2018-03-04T04:38:57.036Z,0.90
2018-03-04T04:41:27.158Z,0.90
2018-03-04T04:43:56.935Z,0.90
2018-03-04T04:46:26.257Z,0.90
2018-03-04T04:48:55.853Z,0.90
2018-03-04T04:51:26.433Z,0.90
2018-03-04T04:53:54.951Z,0.90
2018-03-04T04:56:25.720Z,1.00
2018-03-04T04:58:55.244Z,1.00
2018-03-04T05:01:23.805Z,1.00
2018-03-04T05:03:53.233Z,1.00
2018-03-04T05:06:21.849Z,1.00
2018-03-04T05:08:55.869Z,1.00
2018-03-04T05:11:24.331Z,1.00
2018-03-04T05:13:53.277Z,1.10
2018-03-04T05:16:24.004Z,1.10
2018-03-04T05:18:52.589Z,1.10
2018-03-04T05:21:21.896Z,1.20
2018-03-04T05:23:51.139Z,1.20
2018-03-04T05:26:22.554Z,1.20
2018-03-04T05:28:50.208Z,1.30
2018-03-04T05:31:17.828Z,1.30
2018-03-04T05:33:48.200Z,1.30
2018-03-04T05:36:18.493Z,1.30
2018-03-04T05:38:46.154Z,1.30
2018-03-04T05:41:13.765Z,1.30
2018-03-04T05:43:41.761Z,1.30
2018-03-04T05:46:10.054Z,1.30
2018-03-04T05:48:38.781Z,1.30
2018-03-04T05:51:07.155Z,1.30
2018-03-04T05:53:37.172Z,1.30
2018-03-04T05:56:07.003Z,1.30
2018-03-04T05:58:36.434Z,1.30
2018-03-04T06:01:05.280Z,1.30
2018-03-04T06:03:32.852Z,1.30
2018-03-04T06:06:00.457Z,1.40
2018-03-04T06:08:28.082Z,1.40
2018-03-04T06:10:58.161Z,1.40
2018-03-04T06:13:26.416Z,1.40
2018-03-04T06:15:55.057Z,1.40
2018-03-04T06:18:23.852Z,1.40
2018-03-04T06:20:53.536Z,1.50
2018-03-04T06:23:21.053Z,1.50
2018-03-04T06:25:50.248Z,1.50
2018-03-04T06:28:18.166Z,1.50
2018-03-04T06:30:45.748Z,1.50
2018-03-04T06:33:15.285Z,1.50
2018-03-04T06:35:43.576Z,1.50
2018-03-04T06:38:12.073Z,1.50
2018-03-04T06:40:39.644Z,1.60
2018-03-04T06:43:07.198Z,1.60
2018-03-04T06:45:34.936Z,1.60
2018-03-04T06:48:03.962Z,1.70
2018-03-04T06:50:31.541Z,1.70
2018-03-04T06:52:59.530Z,1.80
2018-03-04T06:55:27.409Z,1.80
2018-03-04T06:57:55.391Z,1.80
2018-03-04T07:00:24.008Z,1.80
2018-03-04T07:02:52.566Z,1.80
2018-03-04T07:05:20.116Z,1.90
2018-03-04T07:07:49.109Z,1.80
2018-03-04T07:10:16.724Z,1.80
2018-03-04T07:12:45.472Z,1.90
2018-03-04T07:15:13.296Z,1.90
2018-03-04T07:17:42.778Z,2.00
2018-03-04T07:20:12.135Z,2.00
2018-03-04T07:22:40.442Z,2.10
2018-03-04T07:25:08.890Z,2.20
2018-03-04T07:27:36.958Z,2.20
2018-03-04T07:30:05.387Z,2.20
2018-03-04T07:32:32.965Z,2.30
2018-03-04T07:35:02.324Z,2.40
2018-03-04T07:37:31.002Z,2.40
2018-03-04T07:39:59.902Z,2.40
2018-03-04T07:42:29.268Z,2.30
2018-03-04T07:44:58.574Z,2.40
2018-03-04T07:47:26.261Z,2.40
2018-03-04T07:49:54.600Z,2.40
2018-03-04T07:52:23.276Z,2.40
2018-03-04T07:54:52.101Z,2.40
2018-03-04T07:57:19.851Z,2.40
2018-03-04T07:59:48.566Z,2.50
2018-03-04T08:02:17.908Z,2.60
2018-03-04T08:04:46.539Z,2.60
2018-03-04T08:07:15.454Z,2.60
2018-03-04T08:09:45.014Z,2.60
2018-03-04T08:12:16.364Z,2.70
2018-03-04T08:14:45.261Z,2.80
2018-03-04T08:17:12.825Z,2.90
2018-03-04T08:19:40.386Z,2.90
2018-03-04T08:22:09.749Z,3.00
2018-03-04T08:24:40.497Z,3.10
2018-03-04T08:27:22.405Z,3.10
2018-03-04T08:29:51.394Z,3.10
2018-03-04T08:32:19.009Z,3.20
2018-03-04T08:34:48.739Z,3.30
2018-03-04T08:37:17.730Z,3.50
2018-03-04T08:39:46.553Z,3.50
2018-03-04T08:42:16.298Z,3.50
2018-03-04T08:44:45.310Z,3.50
2018-03-04T08:47:14.326Z,3.60
2018-03-04T08:49:43.890Z,3.60
2018-03-04T08:52:14.009Z,3.70
2018-03-04T08:54:43.571Z,3.70
2018-03-04T08:57:11.541Z,3.90
2018-03-04T08:59:39.806Z,3.90
2018-03-04T09:02:08.533Z,4.00
2018-03-04T09:04:36.469Z,4.20
2018-03-04T09:07:06.165Z,4.30
2018-03-04T09:09:35.615Z,4.30
2018-03-04T09:12:03.270Z,4.40
2018-03-04T09:14:31.843Z,4.50
2018-03-04T09:17:00.458Z,4.70
2018-03-04T09:19:29.350Z,4.70
2018-03-04T09:21:57.034Z,4.80
2018-03-04T09:24:26.580Z,5.00
2018-03-04T09:26:54.864Z,5.10
2018-03-04T09:29:27.949Z,5.30
2018-03-04T09:31:56.041Z,5.30
2018-03-04T09:34:24.387Z,5.30
2018-03-04T09:36:53.350Z,5.20
2018-03-04T09:39:22.934Z,5.20
2018-03-04T09:41:51.301Z,5.30
2018-03-04T09:44:19.527Z,5.20
2018-03-04T09:46:49.495Z,5.20
2018-03-04T09:49:18.061Z,5.40
2018-03-04T09:51:49.398Z,5.50
2018-03-04T09:54:18.703Z,5.90
2018-03-04T09:56:48.209Z,6.10
2018-03-04T09:59:16.969Z,6.10
2018-03-04T10:01:45.293Z,6.20
2018-03-04T10:04:14.617Z,6.00
2018-03-04T10:06:44.411Z,5.80
2018-03-04T10:09:12.839Z,5.80
2018-03-04T10:11:41.172Z,6.50
2018-03-04T10:14:08.795Z,6.50
2018-03-04T10:16:37.663Z,6.90
2018-03-04T10:19:05.312Z,7.10
2018-03-04T10:21:33.913Z,7.20
2018-03-04T10:24:01.899Z,7.60
2018-03-04T10:26:29.881Z,7.80
2018-03-04T10:28:57.668Z,7.80
2018-03-04T10:31:25.274Z,7.90
2018-03-04T10:33:53.795Z,8.30
2018-03-04T10:36:21.792Z,8.60
2018-03-04T10:38:50.306Z,8.80
2018-03-04T10:41:19.298Z,9.10
2018-03-04T10:43:46.933Z,9.40
2018-03-04T10:46:14.476Z,9.60
2018-03-04T10:48:42.089Z,9.70
2018-03-04T10:51:10.057Z,10.30
2018-03-04T10:53:37.685Z,10.30
2018-03-04T10:56:05.284Z,10.30
2018-03-04T10:58:33.295Z,10.40
2018-03-04T11:01:06.422Z,10.40
2018-03-04T11:03:33.967Z,10.50
2018-03-04T11:06:01.554Z,10.60
2018-03-04T11:08:29.846Z,10.80
2018-03-04T11:10:57.883Z,10.80
2018-03-04T11:13:25.415Z,10.90
2018-03-04T11:15:52.969Z,10.90
2018-03-04T11:18:20.553Z,11.10
2018-03-04T11:20:48.853Z,11.30
2018-03-04T11:23:16.595Z,11.50
2018-03-04T11:25:44.134Z,12.00
2018-03-04T11:28:12.610Z,12.80
2018-03-04T11:30:40.169Z,12.80
2018-03-04T11:33:07.751Z,14.50
2018-03-04T11:35:35.316Z,17.10
2018-03-04T11:38:02.957Z,19.00
2018-03-04T11:40:30.537Z,20.50
2018-03-04T11:42:58.627Z,21.40
2018-03-04T11:48:25.981Z,23.30
2018-03-04T11:50:53.983Z,23.30
2018-03-04T11:53:22.893Z,23.70
2018-03-04T11:55:50.490Z,23.70
2018-03-04T11:58:19.692Z,23.80
2018-03-04T12:00:47.298Z,23.70
2018-03-04T12:03:15.657Z,23.80
2018-03-04T12:05:43.198Z,24.10
2018-03-04T12:08:11.480Z,24.60
2018-03-04T12:10:40.068Z,25.90
2018-03-04T12:13:07.666Z,25.90
2018-03-04T12:15:35.624Z,26.10
2018-03-04T12:18:04.531Z,26.10
2018-03-04T12:20:32.479Z,26.50
2018-03-04T12:23:00.510Z,26.00
2018-03-04T12:25:28.290Z,26.00
2018-03-04T12:27:57.093Z,25.90
2018-03-04T12:30:24.812Z,26.20
2018-03-04T12:32:52.587Z,26.50
2018-03-04T12:35:20.419Z,27.30
2018-03-04T12:37:48.265Z,27.60
2018-03-04T12:40:15.941Z,27.80
2018-03-04T12:42:44.750Z,28.20
2018-03-04T12:45:12.391Z,28.30
2018-03-04T12:47:41.722Z,27.80
2018-03-04T12:50:09.533Z,27.80
2018-03-04T12:52:37.516Z,28.50
2018-03-04T12:55:05.484Z,28.40
2018-03-04T12:57:33.043Z,28.40
2018-03-04T13:00:01.139Z,28.20
2018-03-04T13:02:28.679Z,28.20
2018-03-04T13:04:56.715Z,27.10
2018-03-04T13:07:24.303Z,27.10
2018-03-04T13:09:54.107Z,27.00
2018-03-04T13:12:21.691Z,27.00
2018-03-04T13:14:49.381Z,26.80
2018-03-04T13:17:17.014Z,26.50
2018-03-04T13:19:45.002Z,25.60
2018-03-04T13:22:12.603Z,25.60
2018-03-04T13:24:40.192Z,25.20
2018-03-04T13:27:07.777Z,25.10
2018-03-04T13:29:35.328Z,25.40
2018-03-04T13:32:04.245Z,24.60
2018-03-04T13:34:31.801Z,24.60
2018-03-04T13:37:05.644Z,23.70
2018-03-04T13:39:33.386Z,23.80
2018-03-04T13:42:01.034Z,23.60
2018-03-04T13:44:28.709Z,22.00
2018-03-04T13:46:56.276Z,21.50
2018-03-04T13:49:23.916Z,21.10
2018-03-04T13:51:51.479Z,21.40
2018-03-04T13:54:19.040Z,22.00
2018-03-04T13:56:46.585Z,22.40
2018-03-04T13:59:14.179Z,22.50
2018-03-04T14:01:41.754Z,22.60
2018-03-04T14:04:09.313Z,22.20
2018-03-04T14:06:37.141Z,21.60
2018-03-04T14:09:04.713Z,20.70
2018-03-04T14:11:32.268Z,19.70
2018-03-04T14:13:59.837Z,19.40
2018-03-04T14:16:27.431Z,19.20
2018-03-04T14:18:55.006Z,19.30
2018-03-04T14:21:22.982Z,20.10
2018-03-04T14:23:50.936Z,19.60
2018-03-04T14:26:18.886Z,18.70
2018-03-04T14:28:46.452Z,18.70
2018-03-04T14:31:14.023Z,17.90
2018-03-04T14:33:41.556Z,17.10
2018-03-04T14:36:09.144Z,16.30
2018-03-04T14:38:36.694Z,15.70
2018-03-04T14:41:04.272Z,15.10
2018-03-04T14:43:31.811Z,14.50
2018-03-04T14:46:00.222Z,14.00
2018-03-04T14:48:28.156Z,14.20
2018-03-04T14:50:55.734Z,14.20
2018-03-04T14:53:38.472Z,15.10
2018-03-04T14:56:06.102Z,15.10
2018-03-04T14:58:34.505Z,14.70
2018-03-04T15:01:02.075Z,14.30
2018-03-04T15:03:29.607Z,14.00
2018-03-04T15:05:57.578Z,13.90
2018-03-04T15:08:25.564Z,13.90
2018-03-04T15:10:53.190Z,13.90
2018-03-04T15:13:21.719Z,14.10
2018-03-04T15:15:49.294Z,14.10
2018-03-04T15:18:16.864Z,13.80
2018-03-04T15:20:44.430Z,13.50
2018-03-04T15:23:12.045Z,13.50
2018-03-04T15:25:40.070Z,13.30
2018-03-04T15:28:07.602Z,13.30
2018-03-04T15:30:35.197Z,13.00
2018-03-04T15:33:02.785Z,12.60
2018-03-04T15:35:30.817Z,11.90
2018-03-04T15:37:58.396Z,11.90
2018-03-04T15:40:26.047Z,11.60
2018-03-04T15:42:53.626Z,11.30
2018-03-04T15:45:21.177Z,11.10
2018-03-04T15:47:48.753Z,11.00
2018-03-04T15:50:17.290Z,10.70
2018-03-04T15:52:46.019Z,10.60
2018-03-04T15:55:13.994Z,10.30
2018-03-04T15:57:41.964Z,10.20
2018-03-04T16:00:09.531Z,10.20
2018-03-04T16:02:37.504Z,10.00
2018-03-04T16:05:05.453Z,9.70
2018-03-04T16:07:33.419Z,9.50
2018-03-04T16:10:01.022Z,9.50
2018-03-04T16:12:28.592Z,9.30
2018-03-04T16:14:56.240Z,9.00
2018-03-04T16:17:24.717Z,8.90
2018-03-04T16:19:53.143Z,8.80
2018-03-04T16:22:20.804Z,8.80
2018-03-04T16:24:48.485Z,8.60
2018-03-04T16:27:16.034Z,8.60
2018-03-04T16:29:43.588Z,8.40
2018-03-04T16:32:12.062Z,8.40
2018-03-04T16:34:39.645Z,8.20
2018-03-04T16:37:07.236Z,8.20
2018-03-04T16:39:34.802Z,8.10
2018-03-04T16:42:02.401Z,8.10
2018-03-04T16:44:29.944Z,8.00
2018-03-04T16:46:57.507Z,7.90
2018-03-04T16:49:25.102Z,7.90
2018-03-04T16:51:52.678Z,7.80
2018-03-04T16:54:20.669Z,7.80
2018-03-04T16:56:48.731Z,7.80
2018-03-04T16:59:16.282Z,7.70
2018-03-04T17:01:45.231Z,7.50
2018-03-04T17:04:12.819Z,7.60
2018-03-04T17:06:40.357Z,7.50
2018-03-04T17:09:07.930Z,7.50
2018-03-04T17:11:35.481Z,7.40
2018-03-04T17:14:03.041Z,7.40
2018-03-04T17:16:30.625Z,7.40
2018-03-04T17:18:58.618Z,7.30
2018-03-04T17:21:26.207Z,7.30
2018-03-04T17:23:53.817Z,7.30
2018-03-04T17:26:21.371Z,7.30
2018-03-04T17:28:49.345Z,7.20
2018-03-04T17:31:17.299Z,7.20
2018-03-04T17:33:44.895Z,7.20
2018-03-04T17:36:12.491Z,7.10
2018-03-04T17:38:40.063Z,7.10
2018-03-04T17:41:07.627Z,7.10
2018-03-04T17:43:35.188Z,7.10
2018-03-04T17:46:02.760Z,7.00
2018-03-04T17:48:30.334Z,7.00
2018-03-04T17:50:57.914Z,7.00
2018-03-04T17:53:25.905Z,6.90
2018-03-04T17:55:53.454Z,6.90
2018-03-04T17:58:21.047Z,6.90
2018-03-04T18:00:48.679Z,6.80
2018-03-04T18:03:17.177Z,6.80
2018-03-04T18:05:44.737Z,6.80
2018-03-04T18:08:13.198Z,6.80
2018-03-04T18:10:41.048Z,6.70
2018-03-04T18:13:11.174Z,6.70
2018-03-04T18:15:43.462Z,6.60
2018-03-04T18:18:14.966Z,6.60
2018-03-04T18:20:46.787Z,6.60
2018-03-04T18:23:14.752Z,6.60
2018-03-04T18:25:42.379Z,6.60
2018-03-04T18:28:09.982Z,6.60
2018-03-04T18:33:12.009Z,6.60
2018-03-04T18:35:39.670Z,6.60
2018-03-04T18:38:10.297Z,6.60
2018-03-04T18:40:38.345Z,6.60
2018-03-04T18:43:05.965Z,6.60
2018-03-04T18:45:33.582Z,6.60
2018-03-04T18:48:02.954Z,6.60
2018-03-04T18:50:30.506Z,6.50
2018-03-04T18:52:58.075Z,6.60
2018-03-04T18:55:25.653Z,6.60
2018-03-04T18:57:53.937Z,6.60
2018-03-04T19:00:21.574Z,6.60
2018-03-04T19:02:49.168Z,6.60
2018-03-04T19:05:17.130Z,6.70
2018-03-04T19:07:45.326Z,6.70
2018-03-04T19:10:13.132Z,6.70
2018-03-04T19:12:40.913Z,6.80
2018-03-04T19:15:08.494Z,6.70
2018-03-04T19:17:36.074Z,6.70
2018-03-04T19:20:04.042Z,6.70
2018-03-04T19:22:37.431Z,6.60
2018-03-04T19:25:06.314Z,6.70
2018-03-04T19:27:33.915Z,6.70
2018-03-04T19:30:01.469Z,6.70
2018-03-04T19:32:29.224Z,6.70
2018-03-04T19:34:56.781Z,6.70
2018-03-04T19:37:24.385Z,6.80
2018-03-04T19:39:51.966Z,6.80
2018-03-04T19:42:19.486Z,6.90
2018-03-04T19:44:47.049Z,6.90
2018-03-04T19:47:15.556Z,6.80
2018-03-04T19:49:43.374Z,6.70
2018-03-04T19:52:11.338Z,6.60
2018-03-04T19:54:39.800Z,6.60
2018-03-04T19:57:07.730Z,6.60
2018-03-04T19:59:36.235Z,6.60
2018-03-04T20:02:04.644Z,6.50
2018-03-04T20:04:32.202Z,6.50
2018-03-04T20:07:00.237Z,6.60
2018-03-04T20:09:27.750Z,6.60
2018-03-04T20:11:55.338Z,6.60
2018-03-04T20:14:23.687Z,6.60
2018-03-04T20:16:52.038Z,6.50
2018-03-04T20:19:20.009Z,6.50
2018-03-04T20:21:47.995Z,6.50
2018-03-04T20:24:16.837Z,6.50
2018-03-04T20:26:44.436Z,6.50
2018-03-04T20:29:14.169Z,6.50
2018-03-04T20:31:43.265Z,6.50
2018-03-04T20:34:11.085Z,6.50
2018-03-04T20:36:39.703Z,6.50
2018-03-04T20:39:07.341Z,6.50
2018-03-04T20:41:35.408Z,6.40
2018-03-04T20:44:03.452Z,6.40
2018-03-04T20:46:32.303Z,6.30
2018-03-04T20:48:59.981Z,6.30
2018-03-04T20:51:28.078Z,6.30
2018-03-04T20:53:56.382Z,6.30
2018-03-04T20:56:24.386Z,6.30
2018-03-04T20:58:51.954Z,6.30
2018-03-04T21:01:19.658Z,6.40
2018-03-04T21:03:47.250Z,6.40
2018-03-04T21:06:16.702Z,6.40
2018-03-04T21:08:45.213Z,6.50
2018-03-04T21:11:12.846Z,6.50
2018-03-04T21:13:41.916Z,6.60
2018-03-04T21:16:10.133Z,6.70
2018-03-04T21:18:37.727Z,6.70
2018-03-04T21:21:05.684Z,6.80
2018-03-04T21:23:36.784Z,6.70
2018-03-04T21:26:06.966Z,6.80
2018-03-04T21:28:37.402Z,6.80
2018-03-04T21:31:06.785Z,6.80
2018-03-04T21:36:22.595Z,6.80
2018-03-04T21:38:57.610Z,6.80
2018-03-04T21:41:27.498Z,6.90
2018-03-04T21:43:56.790Z,6.90
2018-03-04T21:46:37.137Z,6.90
2018-03-04T21:49:19.018Z,7.00
2018-03-04T21:51:47.336Z,7.00
2018-03-04T21:54:15.822Z,7.00
2018-03-04T21:56:45.630Z,7.10
2018-03-04T21:59:13.327Z,7.10
2018-03-04T22:01:41.010Z,7.10
2018-03-04T22:04:08.589Z,7.10
2018-03-04T22:06:36.450Z,7.10
2018-03-04T22:09:04.008Z,7.10
2018-03-04T22:11:31.560Z,7.10
2018-03-04T22:13:59.106Z,7.10
2018-03-04T22:16:26.679Z,7.10
2018-03-04T22:19:09.460Z,7.00
2018-03-04T22:21:39.903Z,7.00
2018-03-04T22:24:07.876Z,6.90
2018-03-04T22:26:35.906Z,6.90
2018-03-04T22:29:03.523Z,6.90
2018-03-04T22:31:32.687Z,6.90
2018-03-04T22:34:00.340Z,6.90
2018-03-04T22:36:27.943Z,6.90
2018-03-04T22:38:55.563Z,6.90
2018-03-04T22:41:23.156Z,6.90
2018-03-04T22:43:50.793Z,6.90
2018-03-04T22:46:19.020Z,6.90
2018-03-04T22:48:46.726Z,6.90
2018-03-04T22:51:14.737Z,6.90
2018-03-04T22:53:42.290Z,6.90
2018-03-04T22:56:09.861Z,6.80
2018-03-04T22:58:37.459Z,6.80
2018-03-04T23:01:05.697Z,6.70
2018-03-04T23:03:33.281Z,6.60
2018-03-04T23:06:00.909Z,6.60
2018-03-04T23:08:28.430Z,6.50
2018-03-04T23:10:57.049Z,6.30
2018-03-04T23:13:24.976Z,6.30
2018-03-04T23:15:52.545Z,6.20
2018-03-04T23:18:20.481Z,6.20
2018-03-04T23:20:48.049Z,6.20
2018-03-04T23:23:15.604Z,6.20
2018-03-04T23:25:43.154Z,6.20
2018-03-04T23:28:10.780Z,6.20
2018-03-04T23:30:38.990Z,6.20
2018-03-04T23:33:06.774Z,6.20
2018-03-04T23:35:34.345Z,6.20
2018-03-04T23:38:01.892Z,6.10
2018-03-04T23:40:29.447Z,6.10
2018-03-04T23:42:56.997Z,6.10
2018-03-04T23:45:24.574Z,6.10
2018-03-04T23:47:52.104Z,6.00
2018-03-04T23:50:19.679Z,6.10
2018-03-04T23:52:47.216Z,6.10
2018-03-04T23:55:14.792Z,6.00
2018-03-04T23:57:42.359Z,6.00
